sensor_id;sensor_type;location;lat;lon;timestamp;pressure;altitude;pressure_sealevel;temperature;humidity
39613;BME280;25303;48.896;13.342;2023-05-25T00:01:51;93193.69;;;11.64;61.05
39613;BME280;25303;48.896;13.342;2023-05-25T00:04:35;93197.41;;;11.62;60.96
39613;BME280;25303;48.896;13.342;2023-05-25T00:07:19;93201.06;;;11.59;61.01
39613;BME280;25303;48.896;13.342;2023-05-25T00:10:04;93195.44;;;11.55;60.89
39613;BME280;25303;48.896;13.342;2023-05-25T00:12:47;93191.41;;;11.53;61.03
39613;BME280;25303;48.896;13.342;2023-05-25T00:15:30;93188.31;;;11.49;61.09
39613;BME280;25303;48.896;13.342;2023-05-25T00:18:13;93185.22;;;11.46;60.96
39613;BME280;25303;48.896;13.342;2023-05-25T00:20:56;93187.16;;;11.44;60.92
39613;BME280;25303;48.896;13.342;2023-05-25T00:23:39;93191.50;;;11.43;60.99
39613;BME280;25303;48.896;13.342;2023-05-25T00:26:23;93192.31;;;11.44;61.03
39613;BME280;25303;48.896;13.342;2023-05-25T00:29:06;93189.72;;;11.44;61.03
39613;BME280;25303;48.896;13.342;2023-05-25T00:31:49;93189.59;;;11.45;61.03
39613;BME280;25303;48.896;13.342;2023-05-25T00:34:32;93185.53;;;11.43;61.10
39613;BME280;25303;48.896;13.342;2023-05-25T00:37:16;93188.94;;;11.43;61.15
39613;BME280;25303;48.896;13.342;2023-05-25T00:39:59;93187.31;;;11.42;61.17
39613;BME280;25303;48.896;13.342;2023-05-25T00:42:45;93192.63;;;11.40;61.10
39613;BME280;25303;48.896;13.342;2023-05-25T00:45:29;93195.22;;;11.40;61.29
39613;BME280;25303;48.896;13.342;2023-05-25T00:48:12;93190.06;;;11.40;61.15
39613;BME280;25303;48.896;13.342;2023-05-25T00:50:56;93189.09;;;11.42;60.98
39613;BME280;25303;48.896;13.342;2023-05-25T00:53:40;93198.41;;;11.43;60.90
39613;BME280;25303;48.896;13.342;2023-05-25T00:56:29;93199.25;;;11.43;60.90
39613;BME280;25303;48.896;13.342;2023-05-25T00:59:18;93196.66;;;11.43;61.01
39613;BME280;25303;48.896;13.342;2023-05-25T01:02:03;93205.19;;;11.44;61.01
39613;BME280;25303;48.896;13.342;2023-05-25T01:04:50;93202.63;;;11.44;61.05
39613;BME280;25303;48.896;13.342;2023-05-25T01:07:35;93207.63;;;11.45;61.06
39613;BME280;25303;48.896;13.342;2023-05-25T01:10:19;93207.47;;;11.47;61.05
39613;BME280;25303;48.896;13.342;2023-05-25T01:13:06;93209.91;;;11.48;60.95
39613;BME280;25303;48.896;13.342;2023-05-25T01:15:52;93214.91;;;11.50;60.86
39613;BME280;25303;48.896;13.342;2023-05-25T01:18:35;93217.47;;;11.50;61.07
39613;BME280;25303;48.896;13.342;2023-05-25T01:21:26;93210.72;;;11.49;60.89
39613;BME280;25303;48.896;13.342;2023-05-25T01:24:16;93218.28;;;11.50;60.98
39613;BME280;25303;48.896;13.342;2023-05-25T01:27:08;93217.00;;;11.46;61.02
39613;BME280;25303;48.896;13.342;2023-05-25T01:29:54;93213.84;;;11.34;60.68
39613;BME280;25303;48.896;13.342;2023-05-25T01:32:37;93207.13;;;11.15;61.13
39613;BME280;25303;48.896;13.342;2023-05-25T01:35:21;93204.13;;;11.02;60.98
39613;BME280;25303;48.896;13.342;2023-05-25T01:38:07;93202.31;;;10.94;60.88
39613;BME280;25303;48.896;13.342;2023-05-25T01:40:53;93202.94;;;10.88;60.87
39613;BME280;25303;48.896;13.342;2023-05-25T01:43:36;93207.25;;;10.87;61.06
39613;BME280;25303;48.896;13.342;2023-05-25T01:46:25;93207.78;;;10.91;61.16
39613;BME280;25303;48.896;13.342;2023-05-25T01:49:17;93207.63;;;10.92;61.39
39613;BME280;25303;48.896;13.342;2023-05-25T01:52:06;93204.88;;;10.94;61.37
39613;BME280;25303;48.896;13.342;2023-05-25T01:54:56;93204.88;;;10.94;61.50
39613;BME280;25303;48.896;13.342;2023-05-25T01:57:45;93206.66;;;10.93;61.59
39613;BME280;25303;48.896;13.342;2023-05-25T02:00:31;93206.66;;;10.93;61.65
39613;BME280;25303;48.896;13.342;2023-05-25T02:03:15;93208.28;;;10.94;61.83
39613;BME280;25303;48.896;13.342;2023-05-25T02:05:59;93200.56;;;10.94;61.55
39613;BME280;25303;48.896;13.342;2023-05-25T02:08:42;93202.97;;;10.96;61.53
39613;BME280;25303;48.896;13.342;2023-05-25T02:11:27;93197.81;;;10.96;61.48
39613;BME280;25303;48.896;13.342;2023-05-25T02:14:10;93196.72;;;10.99;61.68
39613;BME280;25303;48.896;13.342;2023-05-25T02:16:53;93205.25;;;10.99;61.75
39613;BME280;25303;48.896;13.342;2023-05-25T02:19:38;93200.91;;;11.00;61.58
39613;BME280;25303;48.896;13.342;2023-05-25T02:22:21;93193.19;;;11.00;61.65
39613;BME280;25303;48.896;13.342;2023-05-25T02:25:05;93202.38;;;11.02;61.86
39613;BME280;25303;48.896;13.342;2023-05-25T02:27:51;93191.78;;;11.05;61.77
39613;BME280;25303;48.896;13.342;2023-05-25T02:30:34;93189.88;;;11.07;61.52
39613;BME280;25303;48.896;13.342;2023-05-25T02:33:17;93186.31;;;11.08;61.44
39613;BME280;25303;48.896;13.342;2023-05-25T02:36:00;93186.16;;;11.10;61.15
39613;BME280;25303;48.896;13.342;2023-05-25T02:38:44;93193.91;;;11.10;61.44
39613;BME280;25303;48.896;13.342;2023-05-25T02:41:28;93190.50;;;11.09;61.45
39613;BME280;25303;48.896;13.342;2023-05-25T02:44:12;93198.88;;;11.12;61.32
39613;BME280;25303;48.896;13.342;2023-05-25T02:46:56;93197.25;;;11.10;61.38
39613;BME280;25303;48.896;13.342;2023-05-25T02:49:39;93194.69;;;11.10;61.59
39613;BME280;25303;48.896;13.342;2023-05-25T02:52:23;93192.13;;;11.10;61.46
39613;BME280;25303;48.896;13.342;2023-05-25T02:55:07;93190.38;;;11.11;61.62
39613;BME280;25303;48.896;13.342;2023-05-25T02:57:52;93191.16;;;11.12;61.55
39613;BME280;25303;48.896;13.342;2023-05-25T03:00:53;93210.69;;;11.14;61.54
39613;BME280;25303;48.896;13.342;2023-05-25T03:03:36;93202.94;;;11.14;61.46
39613;BME280;25303;48.896;13.342;2023-05-25T03:06:21;93202.00;;;11.15;61.55
39613;BME280;25303;48.896;13.342;2023-05-25T03:09:20;93212.13;;;11.17;61.40
39613;BME280;25303;48.896;13.342;2023-05-25T03:12:04;93212.28;;;11.15;61.46
39613;BME280;25303;48.896;13.342;2023-05-25T03:14:47;93207.13;;;11.15;61.40
39613;BME280;25303;48.896;13.342;2023-05-25T03:17:32;93209.56;;;11.17;61.54
39613;BME280;25303;48.896;13.342;2023-05-25T03:20:16;93209.38;;;11.18;61.75
39613;BME280;25303;48.896;13.342;2023-05-25T03:23:01;93217.00;;;11.20;61.65
39613;BME280;25303;48.896;13.342;2023-05-25T03:25:44;93218.59;;;11.21;61.80
39613;BME280;25303;48.896;13.342;2023-05-25T03:28:30;93211.66;;;11.21;61.67
39613;BME280;25303;48.896;13.342;2023-05-25T03:31:13;93212.78;;;11.19;61.65
39613;BME280;25303;48.896;13.342;2023-05-25T03:33:58;93215.06;;;11.22;61.51
39613;BME280;25303;48.896;13.342;2023-05-25T03:36:41;93209.91;;;11.22;61.85
39613;BME280;25303;48.896;13.342;2023-05-25T03:39:28;93207.94;;;11.16;61.91
39613;BME280;25303;48.896;13.342;2023-05-25T03:42:11;93215.75;;;11.06;62.14
39613;BME280;25303;48.896;13.342;2023-05-25T03:44:54;93214.44;;;11.02;62.11
39613;BME280;25303;48.896;13.342;2023-05-25T03:47:37;93208.66;;;11.00;62.07
39613;BME280;25303;48.896;13.342;2023-05-25T03:50:22;93211.84;;;11.02;62.25
39613;BME280;25303;48.896;13.342;2023-05-25T03:53:05;93221.06;;;11.04;62.30
39613;BME280;25303;48.896;13.342;2023-05-25T03:55:49;93220.91;;;11.06;62.34
39613;BME280;25303;48.896;13.342;2023-05-25T03:58:33;93215.47;;;11.09;62.43
39613;BME280;25303;48.896;13.342;2023-05-25T04:01:16;93220.31;;;11.12;62.30
39613;BME280;25303;48.896;13.342;2023-05-25T04:03:59;93222.91;;;11.12;62.44
39613;BME280;25303;48.896;13.342;2023-05-25T04:06:44;93223.69;;;11.13;62.17
39613;BME280;25303;48.896;13.342;2023-05-25T04:09:29;93219.19;;;11.15;62.36
39613;BME280;25303;48.896;13.342;2023-05-25T04:12:12;93218.06;;;11.17;62.28
39613;BME280;25303;48.896;13.342;2023-05-25T04:14:55;93218.75;;;11.19;62.37
39613;BME280;25303;48.896;13.342;2023-05-25T04:17:40;93219.28;;;11.23;62.16
39613;BME280;25303;48.896;13.342;2023-05-25T04:20:24;93221.69;;;11.24;61.99
39613;BME280;25303;48.896;13.342;2023-05-25T04:23:09;93226.53;;;11.28;61.86
39613;BME280;25303;48.896;13.342;2023-05-25T04:25:55;93223.50;;;11.32;61.77
39613;BME280;25303;48.896;13.342;2023-05-25T04:28:38;93225.63;;;11.37;61.92
39613;BME280;25303;48.896;13.342;2023-05-25T04:31:27;93226.16;;;11.40;61.95
39613;BME280;25303;48.896;13.342;2023-05-25T04:34:29;93214.53;;;11.45;61.93
39613;BME280;25303;48.896;13.342;2023-05-25T04:37:18;93221.19;;;11.47;61.64
39613;BME280;25303;48.896;13.342;2023-05-25T04:40:04;93219.41;;;11.48;61.54
39613;BME280;25303;48.896;13.342;2023-05-25T04:42:56;93224.41;;;11.49;61.52
39613;BME280;25303;48.896;13.342;2023-05-25T04:45:39;93222.94;;;11.47;61.55
39613;BME280;25303;48.896;13.342;2023-05-25T04:48:22;93229.06;;;11.46;61.63
39613;BME280;25303;48.896;13.342;2023-05-25T04:51:06;93230.34;;;11.42;61.17
39613;BME280;25303;48.896;13.342;2023-05-25T04:53:49;93232.09;;;11.41;61.50
39613;BME280;25303;48.896;13.342;2023-05-25T04:56:34;93233.88;;;11.40;61.44
39613;BME280;25303;48.896;13.342;2023-05-25T04:59:18;93233.88;;;11.40;61.54
39613;BME280;25303;48.896;13.342;2023-05-25T05:02:03;93233.22;;;11.38;61.84
39613;BME280;25303;48.896;13.342;2023-05-25T05:04:46;93237.56;;;11.38;61.80
39613;BME280;25303;48.896;13.342;2023-05-25T05:07:29;93248.69;;;11.38;61.88
39613;BME280;25303;48.896;13.342;2023-05-25T05:10:12;93245.28;;;11.38;61.72
39613;BME280;25303;48.896;13.342;2023-05-25T05:13:02;93252.22;;;11.37;61.70
39613;BME280;25303;48.896;13.342;2023-05-25T05:15:46;93248.81;;;11.37;61.61
39613;BME280;25303;48.896;13.342;2023-05-25T05:18:30;93245.16;;;11.39;61.51
39613;BME280;25303;48.896;13.342;2023-05-25T05:21:13;93244.97;;;11.41;61.59
39613;BME280;25303;48.896;13.342;2023-05-25T05:23:56;93254.03;;;11.45;61.58
39613;BME280;25303;48.896;13.342;2023-05-25T05:26:39;93246.97;;;11.47;61.63
39613;BME280;25303;48.896;13.342;2023-05-25T05:29:43;93246.00;;;11.48;61.39
39613;BME280;25303;48.896;13.342;2023-05-25T05:32:26;93248.41;;;11.50;61.23
39613;BME280;25303;48.896;13.342;2023-05-25T05:35:11;93240.53;;;11.51;61.35
39613;BME280;25303;48.896;13.342;2023-05-25T05:37:57;93247.97;;;11.54;61.37
39613;BME280;25303;48.896;13.342;2023-05-25T05:40:42;93244.41;;;11.55;61.24
39613;BME280;25303;48.896;13.342;2023-05-25T05:43:26;93255.22;;;11.59;61.22
39613;BME280;25303;48.896;13.342;2023-05-25T05:46:11;93256.72;;;11.62;61.24
39613;BME280;25303;48.896;13.342;2023-05-25T05:48:55;93260.44;;;11.67;61.12
39613;BME280;25303;48.896;13.342;2023-05-25T05:51:38;93254.16;;;11.70;61.10
39613;BME280;25303;48.896;13.342;2023-05-25T05:54:21;93252.91;;;11.74;61.24
39613;BME280;25303;48.896;13.342;2023-05-25T05:57:04;93249.06;;;11.78;61.29
39613;BME280;25303;48.896;13.342;2023-05-25T05:59:48;93265.69;;;11.84;61.32
39613;BME280;25303;48.896;13.342;2023-05-25T06:02:33;93253.28;;;11.88;61.43
39613;BME280;25303;48.896;13.342;2023-05-25T06:05:18;93258.97;;;11.91;61.58
39613;BME280;25303;48.896;13.342;2023-05-25T06:08:02;93251.53;;;11.96;61.37
39613;BME280;25303;48.896;13.342;2023-05-25T06:10:48;93253.69;;;12.01;61.40
39613;BME280;25303;48.896;13.342;2023-05-25T06:13:32;93255.66;;;12.07;61.40
39613;BME280;25303;48.896;13.342;2023-05-25T06:16:15;93253.56;;;12.11;61.46
39613;BME280;25303;48.896;13.342;2023-05-25T06:18:59;93259.25;;;12.14;61.54
39613;BME280;25303;48.896;13.342;2023-05-25T06:21:43;93256.19;;;12.19;61.46
39613;BME280;25303;48.896;13.342;2023-05-25T06:24:26;93253.31;;;12.22;61.34
39613;BME280;25303;48.896;13.342;2023-05-25T06:27:09;93258.13;;;12.25;61.06
39613;BME280;25303;48.896;13.342;2023-05-25T06:29:54;93253.16;;;12.32;61.12
39613;BME280;25303;48.896;13.342;2023-05-25T06:32:38;93256.91;;;12.38;61.01
39613;BME280;25303;48.896;13.342;2023-05-25T06:35:23;93253.66;;;12.44;60.91
39613;BME280;25303;48.896;13.342;2023-05-25T06:38:08;93257.06;;;12.53;60.45
39613;BME280;25303;48.896;13.342;2023-05-25T06:40:52;93253.69;;;12.60;60.42
39613;BME280;25303;48.896;13.342;2023-05-25T06:43:35;93255.47;;;12.68;60.25
39613;BME280;25303;48.896;13.342;2023-05-25T06:46:29;93258.22;;;12.75;60.14
39613;BME280;25303;48.896;13.342;2023-05-25T06:49:13;93261.16;;;12.80;60.07
39613;BME280;25303;48.896;13.342;2023-05-25T06:51:58;93260.34;;;12.88;60.08
39613;BME280;25303;48.896;13.342;2023-05-25T06:54:41;93268.44;;;12.93;59.81
39613;BME280;25303;48.896;13.342;2023-05-25T06:57:24;93271.97;;;13.00;59.79
39613;BME280;25303;48.896;13.342;2023-05-25T07:00:09;93270.38;;;13.07;59.42
39613;BME280;25303;48.896;13.342;2023-05-25T07:02:53;93269.41;;;13.17;59.35
39613;BME280;25303;48.896;13.342;2023-05-25T07:05:36;93273.75;;;13.25;59.22
39613;BME280;25303;48.896;13.342;2023-05-25T07:08:22;93268.44;;;13.34;59.26
39613;BME280;25303;48.896;13.342;2023-05-25T07:11:05;93276.22;;;13.43;58.94
39613;BME280;25303;48.896;13.342;2023-05-25T07:13:52;93280.72;;;13.49;58.71
39613;BME280;25303;48.896;13.342;2023-05-25T07:16:35;93278.13;;;13.57;58.58
39613;BME280;25303;48.896;13.342;2023-05-25T07:19:19;93285.88;;;13.65;58.46
39613;BME280;25303;48.896;13.342;2023-05-25T07:22:02;93284.06;;;13.74;58.17
39613;BME280;25303;48.896;13.342;2023-05-25T07:24:46;93277.47;;;13.80;58.00
39613;BME280;25303;48.896;13.342;2023-05-25T07:27:30;93279.38;;;13.86;57.86
39613;BME280;25303;48.896;13.342;2023-05-25T07:30:15;93280.97;;;13.95;57.93
39613;BME280;25303;48.896;13.342;2023-05-25T07:32:58;93277.38;;;14.05;57.69
39613;BME280;25303;48.896;13.342;2023-05-25T07:35:41;93286.75;;;14.14;57.68
39613;BME280;25303;48.896;13.342;2023-05-25T07:38:25;93286.38;;;14.25;57.21
39613;BME280;25303;48.896;13.342;2023-05-25T07:41:10;93290.19;;;14.38;56.85
39613;BME280;25303;48.896;13.342;2023-05-25T07:43:54;93284.97;;;14.46;56.62
39613;BME280;25303;48.896;13.342;2023-05-25T07:46:37;93296.56;;;14.58;56.29
39613;BME280;25303;48.896;13.342;2023-05-25T07:49:20;93292.50;;;14.72;55.58
39613;BME280;25303;48.896;13.342;2023-05-25T07:52:03;93289.50;;;14.84;55.20
39613;BME280;25303;48.896;13.342;2023-05-25T07:54:47;93293.13;;;14.98;55.15
39613;BME280;25303;48.896;13.342;2023-05-25T07:57:31;93291.56;;;15.12;54.78
39613;BME280;25303;48.896;13.342;2023-05-25T08:00:15;93293.59;;;15.25;54.94
39613;BME280;25303;48.896;13.342;2023-05-25T08:02:58;93293.16;;;15.36;54.12
39613;BME280;25303;48.896;13.342;2023-05-25T08:05:43;93297.47;;;15.44;52.81
39613;BME280;25303;48.896;13.342;2023-05-25T08:08:26;93299.19;;;15.52;52.75
39613;BME280;25303;48.896;13.342;2023-05-25T08:11:09;93293.13;;;15.59;52.59
39613;BME280;25303;48.896;13.342;2023-05-25T08:13:54;93296.28;;;15.70;52.36
39613;BME280;25303;48.896;13.342;2023-05-25T08:16:37;93291.19;;;15.76;51.87
39613;BME280;25303;48.896;13.342;2023-05-25T08:19:20;93295.66;;;15.83;51.51
39613;BME280;25303;48.896;13.342;2023-05-25T08:22:03;93306.56;;;15.86;51.04
39613;BME280;25303;48.896;13.342;2023-05-25T08:24:46;93303.06;;;15.94;50.30
39613;BME280;25303;48.896;13.342;2023-05-25T08:27:29;93300.66;;;16.07;50.38
39613;BME280;25303;48.896;13.342;2023-05-25T08:30:17;93294.00;;;16.20;50.53
39613;BME280;25303;48.896;13.342;2023-05-25T08:33:00;93306.53;;;16.31;49.78
39613;BME280;25303;48.896;13.342;2023-05-25T08:35:44;93304.66;;;16.40;49.36
39613;BME280;25303;48.896;13.342;2023-05-25T08:38:27;93296.94;;;16.47;48.96
39613;BME280;25303;48.896;13.342;2023-05-25T08:41:11;93306.44;;;16.54;48.81
39613;BME280;25303;48.896;13.342;2023-05-25T08:43:55;93309.38;;;16.66;48.41
39613;BME280;25303;48.896;13.342;2023-05-25T08:46:40;93312.84;;;16.74;48.05
39613;BME280;25303;48.896;13.342;2023-05-25T08:49:24;93316.31;;;16.81;47.37
39613;BME280;25303;48.896;13.342;2023-05-25T08:52:10;93317.00;;;16.90;47.09
39613;BME280;25303;48.896;13.342;2023-05-25T08:54:57;93321.59;;;17.03;47.06
39613;BME280;25303;48.896;13.342;2023-05-25T08:57:49;93324.31;;;17.16;46.67
39613;BME280;25303;48.896;13.342;2023-05-25T09:00:38;93319.06;;;17.31;46.48
39613;BME280;25303;48.896;13.342;2023-05-25T09:03:26;93323.41;;;17.45;46.04
39613;BME280;25303;48.896;13.342;2023-05-25T09:06:11;93321.28;;;17.56;45.16
39613;BME280;25303;48.896;13.342;2023-05-25T09:08:55;93323.66;;;17.79;45.29
39613;BME280;25303;48.896;13.342;2023-05-25T09:11:39;93325.19;;;17.95;44.47
39613;BME280;25303;48.896;13.342;2023-05-25T09:14:26;93332.78;;;17.97;44.04
39613;BME280;25303;48.896;13.342;2023-05-25T09:17:09;93333.19;;;18.22;44.84
39613;BME280;25303;48.896;13.342;2023-05-25T09:19:54;93335.31;;;18.40;42.96
39613;BME280;25303;48.896;13.342;2023-05-25T09:22:38;93337.94;;;18.47;42.18
39613;BME280;25303;48.896;13.342;2023-05-25T09:25:22;93337.03;;;18.68;42.48
39613;BME280;25303;48.896;13.342;2023-05-25T09:28:07;93334.09;;;18.85;42.72
39613;BME280;25303;48.896;13.342;2023-05-25T09:31:08;93334.78;;;19.07;42.36
39613;BME280;25303;48.896;13.342;2023-05-25T09:33:51;93337.63;;;19.25;41.65
39613;BME280;25303;48.896;13.342;2023-05-25T09:36:42;93337.03;;;19.23;40.40
39613;BME280;25303;48.896;13.342;2023-05-25T09:39:25;93338.47;;;19.46;38.64
39613;BME280;25303;48.896;13.342;2023-05-25T09:42:09;93339.31;;;19.80;41.17
39613;BME280;25303;48.896;13.342;2023-05-25T09:44:53;93341.31;;;20.05;40.59
39613;BME280;25303;48.896;13.342;2023-05-25T09:47:36;93340.50;;;20.25;39.74
39613;BME280;25303;48.896;13.342;2023-05-25T09:50:19;93333.44;;;20.39;39.35
39613;BME280;25303;48.896;13.342;2023-05-25T09:53:06;93335.19;;;20.58;39.08
39613;BME280;25303;48.896;13.342;2023-05-25T09:55:50;93331.56;;;20.53;38.20
39613;BME280;25303;48.896;13.342;2023-05-25T09:58:35;93339.09;;;20.94;39.11
39613;BME280;25303;48.896;13.342;2023-05-25T10:04:02;93333.75;;;21.53;38.31
39613;BME280;25303;48.896;13.342;2023-05-25T10:06:47;93329.16;;;21.81;38.03
39613;BME280;25303;48.896;13.342;2023-05-25T10:09:34;93332.88;;;21.60;34.69
39613;BME280;25303;48.896;13.342;2023-05-25T10:12:23;93332.50;;;21.63;36.68
39613;BME280;25303;48.896;13.342;2023-05-25T10:15:08;93328.22;;;21.94;36.78
39613;BME280;25303;48.896;13.342;2023-05-25T10:17:53;93332.50;;;22.32;36.64
39613;BME280;25303;48.896;13.342;2023-05-25T10:20:38;93331.38;;;22.46;35.75
39613;BME280;25303;48.896;13.342;2023-05-25T10:23:23;93326.13;;;22.84;36.16
39613;BME280;25303;48.896;13.342;2023-05-25T10:26:08;93326.22;;;23.26;35.73
39613;BME280;25303;48.896;13.342;2023-05-25T10:28:55;93322.66;;;23.51;35.10
39613;BME280;25303;48.896;13.342;2023-05-25T10:31:42;93337.22;;;23.77;34.56
39613;BME280;25303;48.896;13.342;2023-05-25T10:34:26;93329.75;;;24.05;34.42
39613;BME280;25303;48.896;13.342;2023-05-25T10:37:11;93318.75;;;24.20;33.91
39613;BME280;25303;48.896;13.342;2023-05-25T10:39:56;93318.88;;;24.37;34.25
39613;BME280;25303;48.896;13.342;2023-05-25T10:42:41;93314.38;;;24.61;33.31
39613;BME280;25303;48.896;13.342;2023-05-25T10:45:24;93321.13;;;24.81;33.21
39613;BME280;25303;48.896;13.342;2023-05-25T10:48:08;93323.44;;;25.06;33.61
39613;BME280;25303;48.896;13.342;2023-05-25T10:50:52;93324.25;;;25.24;33.35
39613;BME280;25303;48.896;13.342;2023-05-25T10:53:36;93329.94;;;25.32;32.14
39613;BME280;25303;48.896;13.342;2023-05-25T10:56:19;93329.22;;;25.49;33.00
39613;BME280;25303;48.896;13.342;2023-05-25T10:59:03;93323.88;;;25.61;31.91
39613;BME280;25303;48.896;13.342;2023-05-25T11:01:50;93324.38;;;25.75;31.12
39613;BME280;25303;48.896;13.342;2023-05-25T11:04:33;93324.88;;;25.89;31.96
39613;BME280;25303;48.896;13.342;2023-05-25T11:07:20;93314.47;;;25.82;30.91
39613;BME280;25303;48.896;13.342;2023-05-25T11:10:04;93321.91;;;25.85;29.98
39613;BME280;25303;48.896;13.342;2023-05-25T11:12:50;93312.72;;;25.54;29.67
39613;BME280;25303;48.896;13.342;2023-05-25T11:15:34;93317.88;;;25.48;29.91
39613;BME280;25303;48.896;13.342;2023-05-25T11:18:17;93304.59;;;25.72;30.43
39613;BME280;25303;48.896;13.342;2023-05-25T11:21:10;93309.03;;;26.06;29.50
39613;BME280;25303;48.896;13.342;2023-05-25T11:23:54;93306.66;;;26.04;28.87
39613;BME280;25303;48.896;13.342;2023-05-25T11:26:51;93313.59;;;25.93;28.68
39613;BME280;25303;48.896;13.342;2023-05-25T11:29:35;93310.16;;;25.93;28.97
39613;BME280;25303;48.896;13.342;2023-05-25T11:32:19;93307.59;;;26.15;29.13
39613;BME280;25303;48.896;13.342;2023-05-25T11:35:05;93309.31;;;26.44;29.88
39613;BME280;25303;48.896;13.342;2023-05-25T11:37:50;93315.66;;;26.65;29.37
39613;BME280;25303;48.896;13.342;2023-05-25T11:40:34;93315.44;;;26.66;28.84
39613;BME280;25303;48.896;13.342;2023-05-25T11:43:21;93306.19;;;26.86;28.73
39613;BME280;25303;48.896;13.342;2023-05-25T11:46:08;93306.38;;;27.02;27.52
39613;BME280;25303;48.896;13.342;2023-05-25T11:48:53;93295.19;;;27.22;28.28
39613;BME280;25303;48.896;13.342;2023-05-25T11:51:36;93308.19;;;27.51;27.68
39613;BME280;25303;48.896;13.342;2023-05-25T11:54:21;93301.66;;;27.58;27.23
39613;BME280;25303;48.896;13.342;2023-05-25T11:57:13;93305.88;;;27.59;26.71
39613;BME280;25303;48.896;13.342;2023-05-25T11:59:57;93299.84;;;27.64;27.18
39613;BME280;25303;48.896;13.342;2023-05-25T12:02:44;93307.00;;;27.64;27.08
39613;BME280;25303;48.896;13.342;2023-05-25T12:05:38;93298.44;;;27.56;26.68
39613;BME280;25303;48.896;13.342;2023-05-25T12:08:30;93299.31;;;27.62;26.34
39613;BME280;25303;48.896;13.342;2023-05-25T12:11:14;93296.03;;;27.82;27.29
39613;BME280;25303;48.896;13.342;2023-05-25T12:13:57;93298.31;;;28.06;27.10
39613;BME280;25303;48.896;13.342;2023-05-25T12:16:41;93291.13;;;27.96;26.23
39613;BME280;25303;48.896;13.342;2023-05-25T12:19:24;93290.91;;;27.70;25.84
39613;BME280;25303;48.896;13.342;2023-05-25T12:22:10;93285.66;;;27.75;26.71
39613;BME280;25303;48.896;13.342;2023-05-25T12:24:54;93288.78;;;28.05;27.42
39613;BME280;25303;48.896;13.342;2023-05-25T12:27:38;93287.41;;;28.40;26.73
39613;BME280;25303;48.896;13.342;2023-05-25T12:30:27;93287.78;;;28.54;25.91
39613;BME280;25303;48.896;13.342;2023-05-25T12:33:11;93289.22;;;28.77;26.00
39613;BME280;25303;48.896;13.342;2023-05-25T12:35:55;93289.31;;;29.03;25.85
39613;BME280;25303;48.896;13.342;2023-05-25T12:38:39;93287.78;;;29.33;25.93
39613;BME280;25303;48.896;13.342;2023-05-25T12:41:28;93284.66;;;29.57;25.79
39613;BME280;25303;48.896;13.342;2023-05-25T12:44:34;93291.81;;;29.67;26.22
39613;BME280;25303;48.896;13.342;2023-05-25T12:47:33;93292.09;;;29.76;26.00
39613;BME280;25303;48.896;13.342;2023-05-25T12:50:17;93289.72;;;29.95;26.28
39613;BME280;25303;48.896;13.342;2023-05-25T12:53:01;93284.66;;;30.04;25.50
39613;BME280;25303;48.896;13.342;2023-05-25T12:55:46;93282.56;;;30.16;25.56
39613;BME280;25303;48.896;13.342;2023-05-25T12:58:29;93283.88;;;30.19;25.47
39613;BME280;25303;48.896;13.342;2023-05-25T13:01:12;93284.94;;;30.23;24.83
39613;BME280;25303;48.896;13.342;2023-05-25T13:03:55;93280.94;;;30.25;24.70
39613;BME280;25303;48.896;13.342;2023-05-25T13:06:38;93280.44;;;30.13;24.53
39613;BME280;25303;48.896;13.342;2023-05-25T13:09:23;93282.56;;;30.11;24.86
39613;BME280;25303;48.896;13.342;2023-05-25T13:12:09;93279.91;;;30.11;24.29
39613;BME280;25303;48.896;13.342;2023-05-25T13:14:53;93278.31;;;30.05;24.84
39613;BME280;25303;48.896;13.342;2023-05-25T13:17:36;93275.91;;;30.13;24.05
39613;BME280;25303;48.896;13.342;2023-05-25T13:20:20;93279.13;;;30.05;24.34
39613;BME280;25303;48.896;13.342;2023-05-25T13:23:04;93271.66;;;30.23;24.95
39613;BME280;25303;48.896;13.342;2023-05-25T13:25:47;93280.69;;;30.22;23.85
39613;BME280;25303;48.896;13.342;2023-05-25T13:28:31;93278.03;;;30.22;23.85
39613;BME280;25303;48.896;13.342;2023-05-25T13:31:15;93269.53;;;30.20;24.82
39613;BME280;25303;48.896;13.342;2023-05-25T13:33:58;93273.19;;;30.55;24.99
39613;BME280;25303;48.896;13.342;2023-05-25T13:36:41;93278.69;;;30.79;23.52
39613;BME280;25303;48.896;13.342;2023-05-25T13:39:25;93271.47;;;30.80;23.65
39613;BME280;25303;48.896;13.342;2023-05-25T13:42:08;93270.41;;;30.81;23.05
39613;BME280;25303;48.896;13.342;2023-05-25T13:44:52;93274.97;;;30.75;23.01
39613;BME280;25303;48.896;13.342;2023-05-25T13:47:35;93269.44;;;30.51;23.00
39613;BME280;25303;48.896;13.342;2023-05-25T13:50:20;93263.44;;;30.19;23.52
39613;BME280;25303;48.896;13.342;2023-05-25T13:53:03;93262.63;;;30.24;23.51
39613;BME280;25303;48.896;13.342;2023-05-25T13:55:46;93268.75;;;30.19;24.27
39613;BME280;25303;48.896;13.342;2023-05-25T13:58:29;93267.44;;;29.96;23.55
39613;BME280;25303;48.896;13.342;2023-05-25T14:01:13;93264.50;;;29.51;24.50
39613;BME280;25303;48.896;13.342;2023-05-25T14:03:56;93264.69;;;29.18;24.90
39613;BME280;25303;48.896;13.342;2023-05-25T14:06:40;93271.25;;;28.95;26.53
39613;BME280;25303;48.896;13.342;2023-05-25T14:09:23;93264.53;;;28.72;26.19
39613;BME280;25303;48.896;13.342;2023-05-25T14:12:07;93267.09;;;28.46;26.61
39613;BME280;25303;48.896;13.342;2023-05-25T14:14:49;93261.09;;;28.13;26.35
39613;BME280;25303;48.896;13.342;2023-05-25T14:17:34;93267.38;;;27.74;27.27
39613;BME280;25303;48.896;13.342;2023-05-25T14:20:17;93272.16;;;27.44;27.35
39613;BME280;25303;48.896;13.342;2023-05-25T14:23:06;93269.97;;;27.09;27.96
39613;BME280;25303;48.896;13.342;2023-05-25T14:25:52;93260.72;;;26.84;28.12